sensor_id;sensor_type;location;lat;lon;timestamp;P1;durP1;ratioP1;P2;durP2;ratioP2
20731;SDS011;10527;52.124;5.196;2023-05-07T00:00:00;10.07;;;8.57;;
20731;SDS011;10527;52.124;5.196;2023-05-07T00:02:27;11.07;;;7.93;;
20731;SDS011;10527;52.124;5.196;2023-05-07T00:04:55;9.30;;;7.82;;
20731;SDS011;10527;52.124;5.196;2023-05-07T00:07:22;9.27;;;8.00;;
20731;SDS011;10527;52.124;5.196;2023-05-07T00:09:50;9.18;;;7.75;;
20731;SDS011;10527;52.124;5.196;2023-05-07T00:12:17;9.15;;;8.20;;
20731;SDS011;10527;52.124;5.196;2023-05-07T00:14:44;10.50;;;7.82;;
20731;SDS011;10527;52.124;5.196;2023-05-07T00:17:11;7.20;;;6.38;;
20731;SDS011;10527;52.124;5.196;2023-05-07T00:19:38;9.63;;;7.93;;
20731;SDS011;10527;52.124;5.196;2023-05-07T00:22:05;9.93;;;7.25;;
20731;SDS011;10527;52.124;5.196;2023-05-07T00:24:34;10.18;;;6.90;;
20731;SDS011;10527;52.124;5.196;2023-05-07T00:27:00;9.02;;;7.40;;
20731;SDS011;10527;52.124;5.196;2023-05-07T00:29:27;7.47;;;6.38;;
20731;SDS011;10527;52.124;5.196;2023-05-07T00:31:54;7.85;;;6.45;;
20731;SDS011;10527;52.124;5.196;2023-05-07T00:34:21;7.25;;;6.25;;
20731;SDS011;10527;52.124;5.196;2023-05-07T00:36:48;6.63;;;5.30;;
20731;SDS011;10527;52.124;5.196;2023-05-07T00:39:15;8.32;;;6.20;;
20731;SDS011;10527;52.124;5.196;2023-05-07T00:41:41;7.05;;;5.85;;
20731;SDS011;10527;52.124;5.196;2023-05-07T00:44:08;5.88;;;5.28;;
20731;SDS011;10527;52.124;5.196;2023-05-07T00:46:35;6.97;;;5.28;;
20731;SDS011;10527;52.124;5.196;2023-05-07T00:49:03;6.57;;;5.22;;
20731;SDS011;10527;52.124;5.196;2023-05-07T00:51:31;6.68;;;5.35;;
20731;SDS011;10527;52.124;5.196;2023-05-07T00:54:00;7.05;;;5.40;;
20731;SDS011;10527;52.124;5.196;2023-05-07T00:56:29;5.70;;;5.00;;
20731;SDS011;10527;52.124;5.196;2023-05-07T00:58:58;6.25;;;5.38;;
20731;SDS011;10527;52.124;5.196;2023-05-07T01:01:25;6.22;;;5.32;;
20731;SDS011;10527;52.124;5.196;2023-05-07T01:03:52;6.15;;;5.15;;
20731;SDS011;10527;52.124;5.196;2023-05-07T01:06:20;5.22;;;4.35;;
20731;SDS011;10527;52.124;5.196;2023-05-07T01:08:50;6.65;;;4.95;;
20731;SDS011;10527;52.124;5.196;2023-05-07T01:11:19;5.15;;;4.50;;
20731;SDS011;10527;52.124;5.196;2023-05-07T01:13:47;5.25;;;4.65;;
20731;SDS011;10527;52.124;5.196;2023-05-07T01:16:16;7.07;;;5.45;;
20731;SDS011;10527;52.124;5.196;2023-05-07T01:18:43;4.55;;;4.00;;
20731;SDS011;10527;52.124;5.196;2023-05-07T01:21:13;5.38;;;4.35;;
20731;SDS011;10527;52.124;5.196;2023-05-07T01:23:44;5.55;;;4.60;;
20731;SDS011;10527;52.124;5.196;2023-05-07T01:26:12;5.50;;;4.65;;
20731;SDS011;10527;52.124;5.196;2023-05-07T01:28:38;7.18;;;4.93;;
20731;SDS011;10527;52.124;5.196;2023-05-07T01:31:06;6.95;;;5.05;;
20731;SDS011;10527;52.124;5.196;2023-05-07T01:33:40;6.72;;;4.65;;
20731;SDS011;10527;52.124;5.196;2023-05-07T01:36:11;5.82;;;4.38;;
20731;SDS011;10527;52.124;5.196;2023-05-07T01:38:40;4.85;;;4.35;;
20731;SDS011;10527;52.124;5.196;2023-05-07T01:41:08;6.53;;;4.57;;
20731;SDS011;10527;52.124;5.196;2023-05-07T01:43:36;5.63;;;4.60;;
20731;SDS011;10527;52.124;5.196;2023-05-07T01:46:03;6.55;;;4.32;;
20731;SDS011;10527;52.124;5.196;2023-05-07T01:48:31;5.60;;;4.13;;
20731;SDS011;10527;52.124;5.196;2023-05-07T01:50:59;5.35;;;4.15;;
20731;SDS011;10527;52.124;5.196;2023-05-07T01:53:28;5.95;;;4.38;;
20731;SDS011;10527;52.124;5.196;2023-05-07T01:55:54;4.07;;;3.67;;
20731;SDS011;10527;52.124;5.196;2023-05-07T01:58:21;5.50;;;4.47;;
20731;SDS011;10527;52.124;5.196;2023-05-07T02:00:48;5.28;;;4.20;;
20731;SDS011;10527;52.124;5.196;2023-05-07T02:03:15;6.18;;;4.88;;
20731;SDS011;10527;52.124;5.196;2023-05-07T02:05:42;5.38;;;4.53;;
20731;SDS011;10527;52.124;5.196;2023-05-07T02:08:09;5.30;;;4.40;;
20731;SDS011;10527;52.124;5.196;2023-05-07T02:10:36;6.55;;;4.57;;
20731;SDS011;10527;52.124;5.196;2023-05-07T02:13:02;5.38;;;4.60;;
20731;SDS011;10527;52.124;5.196;2023-05-07T02:15:29;5.80;;;4.65;;
20731;SDS011;10527;52.124;5.196;2023-05-07T02:18:03;6.18;;;4.43;;
20731;SDS011;10527;52.124;5.196;2023-05-07T02:20:33;5.78;;;4.13;;
20731;SDS011;10527;52.124;5.196;2023-05-07T02:23:00;4.88;;;3.60;;
20731;SDS011;10527;52.124;5.196;2023-05-07T02:25:26;6.35;;;4.57;;
20731;SDS011;10527;52.124;5.196;2023-05-07T02:27:54;4.53;;;4.10;;
20731;SDS011;10527;52.124;5.196;2023-05-07T02:30:21;5.05;;;4.47;;
20731;SDS011;10527;52.124;5.196;2023-05-07T02:32:47;5.10;;;3.97;;
20731;SDS011;10527;52.124;5.196;2023-05-07T02:35:14;4.95;;;3.92;;
20731;SDS011;10527;52.124;5.196;2023-05-07T02:37:41;5.22;;;3.58;;
20731;SDS011;10527;52.124;5.196;2023-05-07T02:40:08;4.40;;;3.97;;
20731;SDS011;10527;52.124;5.196;2023-05-07T02:42:37;6.25;;;4.45;;
20731;SDS011;10527;52.124;5.196;2023-05-07T02:45:04;5.10;;;4.60;;
20731;SDS011;10527;52.124;5.196;2023-05-07T02:47:32;4.82;;;4.35;;
20731;SDS011;10527;52.124;5.196;2023-05-07T02:49:59;6.45;;;4.93;;
20731;SDS011;10527;52.124;5.196;2023-05-07T02:52:25;6.18;;;4.40;;
20731;SDS011;10527;52.124;5.196;2023-05-07T02:54:52;5.40;;;4.32;;
20731;SDS011;10527;52.124;5.196;2023-05-07T02:57:19;4.28;;;3.88;;
20731;SDS011;10527;52.124;5.196;2023-05-07T02:59:46;4.95;;;4.18;;
20731;SDS011;10527;52.124;5.196;2023-05-07T03:02:12;5.00;;;4.30;;
20731;SDS011;10527;52.124;5.196;2023-05-07T03:04:41;4.78;;;4.07;;
20731;SDS011;10527;52.124;5.196;2023-05-07T03:07:08;5.30;;;4.00;;
20731;SDS011;10527;52.124;5.196;2023-05-07T03:09:35;5.20;;;4.65;;
20731;SDS011;10527;52.124;5.196;2023-05-07T03:12:02;6.22;;;4.65;;
20731;SDS011;10527;52.124;5.196;2023-05-07T03:14:28;7.28;;;4.28;;
20731;SDS011;10527;52.124;5.196;2023-05-07T03:16:58;6.03;;;4.53;;
20731;SDS011;10527;52.124;5.196;2023-05-07T03:19:25;5.40;;;4.78;;
20731;SDS011;10527;52.124;5.196;2023-05-07T03:21:52;5.30;;;4.55;;
20731;SDS011;10527;52.124;5.196;2023-05-07T03:24:19;6.20;;;4.63;;
20731;SDS011;10527;52.124;5.196;2023-05-07T03:26:46;6.50;;;5.45;;
20731;SDS011;10527;52.124;5.196;2023-05-07T03:29:13;4.85;;;4.35;;
20731;SDS011;10527;52.124;5.196;2023-05-07T03:31:40;5.82;;;5.25;;
20731;SDS011;10527;52.124;5.196;2023-05-07T03:34:09;5.25;;;4.75;;
20731;SDS011;10527;52.124;5.196;2023-05-07T03:36:35;5.97;;;4.70;;
20731;SDS011;10527;52.124;5.196;2023-05-07T03:39:02;5.97;;;5.38;;
20731;SDS011;10527;52.124;5.196;2023-05-07T03:41:29;6.65;;;5.28;;
20731;SDS011;10527;52.124;5.196;2023-05-07T03:43:56;6.15;;;4.70;;
20731;SDS011;10527;52.124;5.196;2023-05-07T03:46:22;6.25;;;4.65;;
20731;SDS011;10527;52.124;5.196;2023-05-07T03:48:52;5.88;;;4.75;;
20731;SDS011;10527;52.124;5.196;2023-05-07T03:51:19;5.15;;;4.65;;
20731;SDS011;10527;52.124;5.196;2023-05-07T03:53:45;5.35;;;4.68;;
20731;SDS011;10527;52.124;5.196;2023-05-07T03:56:12;5.88;;;5.05;;
20731;SDS011;10527;52.124;5.196;2023-05-07T03:58:39;7.03;;;5.55;;
20731;SDS011;10527;52.124;5.196;2023-05-07T04:01:06;7.57;;;5.40;;
20731;SDS011;10527;52.124;5.196;2023-05-07T04:03:33;6.07;;;5.15;;
20731;SDS011;10527;52.124;5.196;2023-05-07T04:06:00;5.53;;;5.00;;
20731;SDS011;10527;52.124;5.196;2023-05-07T04:08:27;5.93;;;5.32;;
20731;SDS011;10527;52.124;5.196;2023-05-07T04:10:54;6.65;;;5.65;;
20731;SDS011;10527;52.124;5.196;2023-05-07T04:13:26;8.30;;;6.18;;
20731;SDS011;10527;52.124;5.196;2023-05-07T04:15:54;11.35;;;6.07;;
20731;SDS011;10527;52.124;5.196;2023-05-07T04:18:21;8.10;;;6.50;;
20731;SDS011;10527;52.124;5.196;2023-05-07T04:20:48;6.82;;;6.18;;
20731;SDS011;10527;52.124;5.196;2023-05-07T04:23:17;7.30;;;6.60;;
20731;SDS011;10527;52.124;5.196;2023-05-07T04:25:46;7.00;;;6.30;;
20731;SDS011;10527;52.124;5.196;2023-05-07T04:28:12;7.57;;;6.78;;
20731;SDS011;10527;52.124;5.196;2023-05-07T04:30:40;8.25;;;6.63;;
20731;SDS011;10527;52.124;5.196;2023-05-07T04:33:09;9.77;;;6.78;;
20731;SDS011;10527;52.124;5.196;2023-05-07T04:35:37;7.68;;;6.88;;
20731;SDS011;10527;52.124;5.196;2023-05-07T04:38:04;7.78;;;6.97;;
20731;SDS011;10527;52.124;5.196;2023-05-07T04:40:32;8.10;;;7.25;;
20731;SDS011;10527;52.124;5.196;2023-05-07T04:43:01;6.90;;;6.28;;
20731;SDS011;10527;52.124;5.196;2023-05-07T04:45:28;9.40;;;8.05;;
20731;SDS011;10527;52.124;5.196;2023-05-07T04:47:55;9.52;;;7.18;;
20731;SDS011;10527;52.124;5.196;2023-05-07T04:50:22;7.50;;;6.75;;
20731;SDS011;10527;52.124;5.196;2023-05-07T04:52:50;8.52;;;7.72;;
20731;SDS011;10527;52.124;5.196;2023-05-07T04:55:17;8.77;;;7.43;;
20731;SDS011;10527;52.124;5.196;2023-05-07T04:57:44;8.98;;;6.80;;
20731;SDS011;10527;52.124;5.196;2023-05-07T05:00:11;9.43;;;8.20;;
20731;SDS011;10527;52.124;5.196;2023-05-07T05:02:42;9.77;;;7.95;;
20731;SDS011;10527;52.124;5.196;2023-05-07T05:05:09;8.15;;;7.35;;
20731;SDS011;10527;52.124;5.196;2023-05-07T05:07:36;8.65;;;7.28;;
20731;SDS011;10527;52.124;5.196;2023-05-07T05:10:04;9.23;;;7.20;;
20731;SDS011;10527;52.124;5.196;2023-05-07T05:12:32;9.90;;;8.90;;
20731;SDS011;10527;52.124;5.196;2023-05-07T05:15:00;9.05;;;7.65;;
20731;SDS011;10527;52.124;5.196;2023-05-07T05:17:27;9.70;;;8.20;;
20731;SDS011;10527;52.124;5.196;2023-05-07T05:19:54;8.05;;;7.22;;
20731;SDS011;10527;52.124;5.196;2023-05-07T05:22:20;9.70;;;8.02;;
20731;SDS011;10527;52.124;5.196;2023-05-07T05:24:47;10.32;;;7.88;;
20731;SDS011;10527;52.124;5.196;2023-05-07T05:27:14;9.50;;;7.82;;
20731;SDS011;10527;52.124;5.196;2023-05-07T05:29:41;9.82;;;7.75;;
20731;SDS011;10527;52.124;5.196;2023-05-07T05:32:07;7.55;;;6.75;;
20731;SDS011;10527;52.124;5.196;2023-05-07T05:34:34;7.65;;;6.82;;
20731;SDS011;10527;52.124;5.196;2023-05-07T05:37:01;8.77;;;7.60;;
20731;SDS011;10527;52.124;5.196;2023-05-07T05:39:28;8.80;;;6.85;;
20731;SDS011;10527;52.124;5.196;2023-05-07T05:41:55;8.00;;;7.03;;
20731;SDS011;10527;52.124;5.196;2023-05-07T05:44:21;9.13;;;7.88;;
20731;SDS011;10527;52.124;5.196;2023-05-07T05:46:48;7.68;;;6.72;;
20731;SDS011;10527;52.124;5.196;2023-05-07T05:49:16;7.63;;;6.93;;
20731;SDS011;10527;52.124;5.196;2023-05-07T05:51:43;7.50;;;6.25;;
20731;SDS011;10527;52.124;5.196;2023-05-07T05:54:10;8.10;;;6.93;;
20731;SDS011;10527;52.124;5.196;2023-05-07T05:56:36;7.35;;;6.65;;
20731;SDS011;10527;52.124;5.196;2023-05-07T05:59:04;8.07;;;6.80;;
20731;SDS011;10527;52.124;5.196;2023-05-07T06:01:30;8.45;;;7.55;;
20731;SDS011;10527;52.124;5.196;2023-05-07T06:04:00;8.05;;;7.05;;
20731;SDS011;10527;52.124;5.196;2023-05-07T06:06:26;8.82;;;7.55;;
20731;SDS011;10527;52.124;5.196;2023-05-07T06:08:54;8.52;;;7.65;;
20731;SDS011;10527;52.124;5.196;2023-05-07T06:11:20;8.15;;;6.95;;
20731;SDS011;10527;52.124;5.196;2023-05-07T06:13:47;10.02;;;7.20;;
20731;SDS011;10527;52.124;5.196;2023-05-07T06:16:14;7.75;;;6.95;;
20731;SDS011;10527;52.124;5.196;2023-05-07T06:18:41;9.20;;;7.32;;
20731;SDS011;10527;52.124;5.196;2023-05-07T06:21:09;8.18;;;7.32;;
20731;SDS011;10527;52.124;5.196;2023-05-07T06:23:36;8.65;;;7.22;;
20731;SDS011;10527;52.124;5.196;2023-05-07T06:26:07;8.70;;;7.47;;
20731;SDS011;10527;52.124;5.196;2023-05-07T06:28:33;7.90;;;6.97;;
20731;SDS011;10527;52.124;5.196;2023-05-07T06:31:13;8.23;;;7.20;;
20731;SDS011;10527;52.124;5.196;2023-05-07T06:33:43;8.85;;;7.55;;
20731;SDS011;10527;52.124;5.196;2023-05-07T06:36:11;9.82;;;8.65;;
20731;SDS011;10527;52.124;5.196;2023-05-07T06:38:39;10.65;;;7.95;;
20731;SDS011;10527;52.124;5.196;2023-05-07T06:41:06;11.00;;;7.95;;
20731;SDS011;10527;52.124;5.196;2023-05-07T06:43:35;8.70;;;7.40;;
20731;SDS011;10527;52.124;5.196;2023-05-07T06:46:02;7.88;;;7.07;;
20731;SDS011;10527;52.124;5.196;2023-05-07T06:48:28;8.90;;;7.72;;
20731;SDS011;10527;52.124;5.196;2023-05-07T06:50:55;8.45;;;7.40;;
20731;SDS011;10527;52.124;5.196;2023-05-07T06:53:23;8.75;;;7.85;;
20731;SDS011;10527;52.124;5.196;2023-05-07T06:55:51;10.07;;;7.15;;
20731;SDS011;10527;52.124;5.196;2023-05-07T06:58:19;8.13;;;7.32;;
20731;SDS011;10527;52.124;5.196;2023-05-07T07:00:46;8.65;;;7.35;;
20731;SDS011;10527;52.124;5.196;2023-05-07T07:03:13;9.60;;;8.50;;
20731;SDS011;10527;52.124;5.196;2023-05-07T07:05:41;8.32;;;7.53;;
20731;SDS011;10527;52.124;5.196;2023-05-07T07:08:09;9.55;;;7.90;;
20731;SDS011;10527;52.124;5.196;2023-05-07T07:10:36;9.70;;;7.75;;
20731;SDS011;10527;52.124;5.196;2023-05-07T07:13:03;9.77;;;7.45;;
20731;SDS011;10527;52.124;5.196;2023-05-07T07:15:30;8.65;;;7.68;;
20731;SDS011;10527;52.124;5.196;2023-05-07T07:17:56;12.00;;;8.85;;
20731;SDS011;10527;52.124;5.196;2023-05-07T07:20:23;8.93;;;7.65;;
20731;SDS011;10527;52.124;5.196;2023-05-07T07:22:51;10.25;;;7.70;;
20731;SDS011;10527;52.124;5.196;2023-05-07T07:25:20;8.80;;;7.85;;
20731;SDS011;10527;52.124;5.196;2023-05-07T07:27:47;11.20;;;9.15;;
20731;SDS011;10527;52.124;5.196;2023-05-07T07:30:14;9.52;;;8.23;;
20731;SDS011;10527;52.124;5.196;2023-05-07T07:32:41;9.82;;;7.90;;
20731;SDS011;10527;52.124;5.196;2023-05-07T07:35:08;8.70;;;7.60;;
20731;SDS011;10527;52.124;5.196;2023-05-07T07:37:36;9.65;;;7.97;;
20731;SDS011;10527;52.124;5.196;2023-05-07T07:40:03;8.82;;;7.55;;
20731;SDS011;10527;52.124;5.196;2023-05-07T07:42:31;8.85;;;7.80;;
20731;SDS011;10527;52.124;5.196;2023-05-07T07:44:58;8.13;;;6.75;;
20731;SDS011;10527;52.124;5.196;2023-05-07T07:47:27;8.20;;;7.38;;
20731;SDS011;10527;52.124;5.196;2023-05-07T07:49:54;10.15;;;7.55;;
20731;SDS011;10527;52.124;5.196;2023-05-07T07:52:21;8.52;;;7.55;;
20731;SDS011;10527;52.124;5.196;2023-05-07T07:54:48;10.23;;;8.15;;
20731;SDS011;10527;52.124;5.196;2023-05-07T07:57:15;9.93;;;8.00;;
20731;SDS011;10527;52.124;5.196;2023-05-07T07:59:41;8.75;;;7.85;;
20731;SDS011;10527;52.124;5.196;2023-05-07T08:02:09;9.32;;;7.43;;
20731;SDS011;10527;52.124;5.196;2023-05-07T08:04:36;8.52;;;7.13;;
20731;SDS011;10527;52.124;5.196;2023-05-07T08:07:05;9.32;;;7.75;;
20731;SDS011;10527;52.124;5.196;2023-05-07T08:09:31;9.02;;;8.13;;
20731;SDS011;10527;52.124;5.196;2023-05-07T08:11:58;17.25;;;10.63;;
20731;SDS011;10527;52.124;5.196;2023-05-07T08:14:25;10.07;;;8.52;;
20731;SDS011;10527;52.124;5.196;2023-05-07T08:16:55;10.45;;;8.13;;
20731;SDS011;10527;52.124;5.196;2023-05-07T08:19:22;10.38;;;7.78;;
20731;SDS011;10527;52.124;5.196;2023-05-07T08:21:49;8.90;;;8.00;;
20731;SDS011;10527;52.124;5.196;2023-05-07T08:24:16;11.30;;;8.00;;
20731;SDS011;10527;52.124;5.196;2023-05-07T08:26:44;7.60;;;6.88;;
20731;SDS011;10527;52.124;5.196;2023-05-07T08:29:13;9.50;;;8.48;;
20731;SDS011;10527;52.124;5.196;2023-05-07T08:31:39;8.68;;;7.82;;
20731;SDS011;10527;52.124;5.196;2023-05-07T08:34:06;10.90;;;8.25;;
20731;SDS011;10527;52.124;5.196;2023-05-07T08:36:35;9.18;;;8.27;;
20731;SDS011;10527;52.124;5.196;2023-05-07T08:39:02;9.02;;;8.13;;
20731;SDS011;10527;52.124;5.196;2023-05-07T08:41:29;9.55;;;8.57;;
20731;SDS011;10527;52.124;5.196;2023-05-07T08:43:57;10.07;;;8.27;;
20731;SDS011;10527;52.124;5.196;2023-05-07T08:46:28;9.05;;;8.15;;
20731;SDS011;10527;52.124;5.196;2023-05-07T08:48:58;9.50;;;7.63;;
20731;SDS011;10527;52.124;5.196;2023-05-07T08:51:25;9.82;;;8.05;;
20731;SDS011;10527;52.124;5.196;2023-05-07T08:53:53;8.73;;;7.28;;
20731;SDS011;10527;52.124;5.196;2023-05-07T08:56:20;9.27;;;7.85;;
20731;SDS011;10527;52.124;5.196;2023-05-07T08:58:48;7.80;;;7.00;;
20731;SDS011;10527;52.124;5.196;2023-05-07T09:01:15;8.90;;;7.40;;
20731;SDS011;10527;52.124;5.196;2023-05-07T09:03:46;8.02;;;7.22;;
20731;SDS011;10527;52.124;5.196;2023-05-07T09:06:16;9.38;;;7.50;;
20731;SDS011;10527;52.124;5.196;2023-05-07T09:08:53;9.82;;;7.93;;
20731;SDS011;10527;52.124;5.196;2023-05-07T09:11:21;8.32;;;7.43;;
20731;SDS011;10527;52.124;5.196;2023-05-07T09:13:53;8.98;;;6.72;;
20731;SDS011;10527;52.124;5.196;2023-05-07T09:16:25;7.45;;;6.68;;
20731;SDS011;10527;52.124;5.196;2023-05-07T09:18:54;7.70;;;7.00;;
20731;SDS011;10527;52.124;5.196;2023-05-07T09:21:23;7.22;;;6.18;;
20731;SDS011;10527;52.124;5.196;2023-05-07T09:23:50;7.32;;;5.72;;
20731;SDS011;10527;52.124;5.196;2023-05-07T09:26:23;7.57;;;6.70;;
20731;SDS011;10527;52.124;5.196;2023-05-07T09:28:51;7.63;;;6.30;;
20731;SDS011;10527;52.124;5.196;2023-05-07T09:31:18;8.65;;;6.47;;
20731;SDS011;10527;52.124;5.196;2023-05-07T09:33:46;8.15;;;6.47;;
20731;SDS011;10527;52.124;5.196;2023-05-07T09:36:13;7.10;;;5.55;;
20731;SDS011;10527;52.124;5.196;2023-05-07T09:38:41;7.22;;;6.05;;
20731;SDS011;10527;52.124;5.196;2023-05-07T09:41:09;10.15;;;5.72;;
20731;SDS011;10527;52.124;5.196;2023-05-07T09:43:38;9.93;;;6.20;;
20731;SDS011;10527;52.124;5.196;2023-05-07T09:46:13;8.07;;;5.40;;
20731;SDS011;10527;52.124;5.196;2023-05-07T09:51:51;7.20;;;6.32;;
20731;SDS011;10527;52.124;5.196;2023-05-07T09:54:22;7.95;;;6.57;;
20731;SDS011;10527;52.124;5.196;2023-05-07T09:59:38;8.32;;;6.35;;
20731;SDS011;10527;52.124;5.196;2023-05-07T10:02:10;7.95;;;6.43;;
20731;SDS011;10527;52.124;5.196;2023-05-07T10:04:43;7.13;;;6.13;;
20731;SDS011;10527;52.124;5.196;2023-05-07T10:07:11;7.50;;;5.20;;
20731;SDS011;10527;52.124;5.196;2023-05-07T10:09:39;6.28;;;4.25;;
20731;SDS011;10527;52.124;5.196;2023-05-07T10:12:09;7.63;;;4.25;;
20731;SDS011;10527;52.124;5.196;2023-05-07T10:14:36;5.13;;;3.00;;
20731;SDS011;10527;52.124;5.196;2023-05-07T10:17:03;5.53;;;2.53;;
20731;SDS011;10527;52.124;5.196;2023-05-07T10:19:32;3.95;;;2.00;;
20731;SDS011;10527;52.124;5.196;2023-05-07T10:22:02;2.65;;;1.90;;
20731;SDS011;10527;52.124;5.196;2023-05-07T10:24:36;3.67;;;2.75;;
20731;SDS011;10527;52.124;5.196;2023-05-07T10:27:05;3.78;;;2.53;;
20731;SDS011;10527;52.124;5.196;2023-05-07T10:33:10;3.95;;;1.98;;
20731;SDS011;10527;52.124;5.196;2023-05-07T10:35:47;4.00;;;2.88;;
20731;SDS011;10527;52.124;5.196;2023-05-07T10:38:15;4.65;;;2.83;;
20731;SDS011;10527;52.124;5.196;2023-05-07T10:40:42;4.13;;;2.70;;
20731;SDS011;10527;52.124;5.196;2023-05-07T10:43:13;4.88;;;2.30;;
20731;SDS011;10527;52.124;5.196;2023-05-07T10:49:10;4.60;;;2.42;;
20731;SDS011;10527;52.124;5.196;2023-05-07T10:51:39;3.92;;;2.55;;
20731;SDS011;10527;52.124;5.196;2023-05-07T10:56:43;7.30;;;4.45;;
20731;SDS011;10527;52.124;5.196;2023-05-07T10:59:44;4.93;;;2.80;;
20731;SDS011;10527;52.124;5.196;2023-05-07T11:02:08;8.38;;;3.50;;
20731;SDS011;10527;52.124;5.196;2023-05-07T11:04:37;3.55;;;2.35;;
20731;SDS011;10527;52.124;5.196;2023-05-07T11:15:02;4.38;;;2.47;;
20731;SDS011;10527;52.124;5.196;2023-05-07T11:17:31;3.08;;;2.30;;
20731;SDS011;10527;52.124;5.196;2023-05-07T11:20:02;4.10;;;2.20;;
20731;SDS011;10527;52.124;5.196;2023-05-07T11:25:01;4.32;;;2.85;;
20731;SDS011;10527;52.124;5.196;2023-05-07T11:27:32;4.07;;;2.97;;
20731;SDS011;10527;52.124;5.196;2023-05-07T11:30:00;3.17;;;2.75;;
20731;SDS011;10527;52.124;5.196;2023-05-07T11:32:28;8.10;;;3.53;;
20731;SDS011;10527;52.124;5.196;2023-05-07T11:34:57;3.30;;;2.65;;
20731;SDS011;10527;52.124;5.196;2023-05-07T11:37:27;3.90;;;3.05;;
20731;SDS011;10527;52.124;5.196;2023-05-07T11:40:05;4.65;;;3.10;;
20731;SDS011;10527;52.124;5.196;2023-05-07T11:42:38;3.55;;;2.83;;
20731;SDS011;10527;52.124;5.196;2023-05-07T11:45:07;4.18;;;2.97;;
20731;SDS011;10527;52.124;5.196;2023-05-07T11:47:36;4.95;;;3.30;;
20731;SDS011;10527;52.124;5.196;2023-05-07T11:50:04;5.65;;;3.08;;
20731;SDS011;10527;52.124;5.196;2023-05-07T11:52:36;4.30;;;2.95;;
20731;SDS011;10527;52.124;5.196;2023-05-07T11:55:08;2.75;;;2.47;;
20731;SDS011;10527;52.124;5.196;2023-05-07T11:57:35;5.45;;;3.30;;
20731;SDS011;10527;52.124;5.196;2023-05-07T12:00:02;6.47;;;3.60;;
20731;SDS011;10527;52.124;5.196;2023-05-07T12:02:31;7.45;;;3.80;;
20731;SDS011;10527;52.124;5.196;2023-05-07T12:05:00;4.35;;;3.28;;
20731;SDS011;10527;52.124;5.196;2023-05-07T12:07:27;5.93;;;3.42;;
20731;SDS011;10527;52.124;5.196;2023-05-07T12:09:54;5.47;;;2.83;;
20731;SDS011;10527;52.124;5.196;2023-05-07T12:12:21;4.30;;;2.90;;
20731;SDS011;10527;52.124;5.196;2023-05-07T12:14:48;6.05;;;3.50;;
20731;SDS011;10527;52.124;5.196;2023-05-07T12:17:14;5.53;;;3.45;;
20731;SDS011;10527;52.124;5.196;2023-05-07T12:19:43;4.55;;;2.90;;
20731;SDS011;10527;52.124;5.196;2023-05-07T12:22:11;7.40;;;3.67;;
20731;SDS011;10527;52.124;5.196;2023-05-07T12:24:46;4.35;;;3.03;;
20731;SDS011;10527;52.124;5.196;2023-05-07T12:27:33;7.05;;;3.53;;
20731;SDS011;10527;52.124;5.196;2023-05-07T12:30:09;4.68;;;3.42;;
20731;SDS011;10527;52.124;5.196;2023-05-07T12:32:37;3.70;;;2.78;;
20731;SDS011;10527;52.124;5.196;2023-05-07T12:35:05;5.65;;;3.35;;
20731;SDS011;10527;52.124;5.196;2023-05-07T12:37:33;5.63;;;3.75;;
20731;SDS011;10527;52.124;5.196;2023-05-07T12:40:06;5.15;;;3.38;;
20731;SDS011;10527;52.124;5.196;2023-05-07T12:42:36;4.00;;;2.53;;
20731;SDS011;10527;52.124;5.196;2023-05-07T12:45:08;6.82;;;2.80;;
20731;SDS011;10527;52.124;5.196;2023-05-07T12:47:46;4.30;;;2.58;;
20731;SDS011;10527;52.124;5.196;2023-05-07T12:50:14;6.55;;;4.18;;
20731;SDS011;10527;52.124;5.196;2023-05-07T12:52:43;5.18;;;4.47;;
20731;SDS011;10527;52.124;5.196;2023-05-07T12:55:12;7.80;;;5.00;;
20731;SDS011;10527;52.124;5.196;2023-05-07T12:57:48;6.90;;;4.88;;
20731;SDS011;10527;52.124;5.196;2023-05-07T13:03:02;5.45;;;4.03;;
20731;SDS011;10527;52.124;5.196;2023-05-07T13:05:29;6.95;;;3.08;;
20731;SDS011;10527;52.124;5.196;2023-05-07T13:07:56;4.60;;;2.55;;
20731;SDS011;10527;52.124;5.196;2023-05-07T13:10:23;4.35;;;2.65;;
20731;SDS011;10527;52.124;5.196;2023-05-07T13:12:51;3.65;;;2.63;;
20731;SDS011;10527;52.124;5.196;2023-05-07T13:15:18;4.97;;;3.13;;
20731;SDS011;10527;52.124;5.196;2023-05-07T13:17:46;5.45;;;3.20;;
20731;SDS011;10527;52.124;5.196;2023-05-07T13:20:13;4.65;;;3.00;;
20731;SDS011;10527;52.124;5.196;2023-05-07T13:22:40;6.30;;;4.00;;
20731;SDS011;10527;52.124;5.196;2023-05-07T13:25:07;5.85;;;4.88;;
20731;SDS011;10527;52.124;5.196;2023-05-07T13:27:35;5.47;;;4.57;;
20731;SDS011;10527;52.124;5.196;2023-05-07T13:30:04;6.93;;;5.28;;
20731;SDS011;10527;52.124;5.196;2023-05-07T13:32:33;9.13;;;4.63;;
20731;SDS011;10527;52.124;5.196;2023-05-07T13:35:01;8.07;;;4.70;;
20731;SDS011;10527;52.124;5.196;2023-05-07T13:37:28;6.55;;;5.35;;
20731;SDS011;10527;52.124;5.196;2023-05-07T13:39:54;6.93;;;5.20;;
20731;SDS011;10527;52.124;5.196;2023-05-07T13:42:21;6.00;;;5.18;;
20731;SDS011;10527;52.124;5.196;2023-05-07T13:44:48;4.80;;;4.25;;
20731;SDS011;10527;52.124;5.196;2023-05-07T13:47:15;6.53;;;5.45;;
20731;SDS011;10527;52.124;5.196;2023-05-07T13:49:42;5.93;;;4.32;;
20731;SDS011;10527;52.124;5.196;2023-05-07T13:52:09;4.75;;;3.58;;
20731;SDS011;10527;52.124;5.196;2023-05-07T13:54:37;5.78;;;3.42;;
20731;SDS011;10527;52.124;5.196;2023-05-07T13:57:04;4.18;;;3.17;;
20731;SDS011;10527;52.124;5.196;2023-05-07T13:59:31;4.43;;;2.72;;
20731;SDS011;10527;52.124;5.196;2023-05-07T14:01:57;4.93;;;2.58;;
20731;SDS011;10527;52.124;5.196;2023-05-07T14:04:24;3.22;;;2.15;;
20731;SDS011;10527;52.124;5.196;2023-05-07T14:06:51;4.65;;;1.90;;
20731;SDS011;10527;52.124;5.196;2023-05-07T14:09:18;3.45;;;1.42;;
20731;SDS011;10527;52.124;5.196;2023-05-07T14:11:45;3.50;;;2.00;;
20731;SDS011;10527;52.124;5.196;2023-05-07T14:14:13;3.60;;;1.52;;
20731;SDS011;10527;52.124;5.196;2023-05-07T14:16:40;2.03;;;1.10;;
20731;SDS011;10527;52.124;5.196;2023-05-07T14:19:07;3.47;;;1.20;;
20731;SDS011;10527;52.124;5.196;2023-05-07T14:21:34;1.50;;;0.90;;
20731;SDS011;10527;52.124;5.196;2023-05-07T14:24:00;3.45;;;1.17;;
20731;SDS011;10527;52.124;5.196;2023-05-07T14:26:27;5.50;;;1.10;;
20731;SDS011;10527;52.124;5.196;2023-05-07T14:28:55;3.85;;;1.10;;
20731;SDS011;10527;52.124;5.196;2023-05-07T14:31:24;2.53;;;1.20;;
20731;SDS011;10527;52.124;5.196;2023-05-07T14:33:52;3.10;;;1.25;;
20731;SDS011;10527;52.124;5.196;2023-05-07T14:36:19;3.13;;;1.20;;
20731;SDS011;10527;52.124;5.196;2023-05-07T14:38:48;4.15;;;2.78;;
20731;SDS011;10527;52.124;5.196;2023-05-07T14:41:15;7.03;;;4.07;;
20731;SDS011;10527;52.124;5.196;2023-05-07T14:43:42;6.55;;;4.38;;
20731;SDS011;10527;52.124;5.196;2023-05-07T14:46:09;7.85;;;4.03;;
20731;SDS011;10527;52.124;5.196;2023-05-07T14:48:36;6.88;;;3.85;;
20731;SDS011;10527;52.124;5.196;2023-05-07T14:51:03;6.97;;;4.20;;
20731;SDS011;10527;52.124;5.196;2023-05-07T14:53:32;7.13;;;4.97;;
20731;SDS011;10527;52.124;5.196;2023-05-07T14:55:59;7.07;;;4.32;;
20731;SDS011;10527;52.124;5.196;2023-05-07T14:58:26;4.93;;;3.33;;
20731;SDS011;10527;52.124;5.196;2023-05-07T15:00:53;4.95;;;3.00;;
20731;SDS011;10527;52.124;5.196;2023-05-07T15:03:19;3.65;;;2.50;;
20731;SDS011;10527;52.124;5.196;2023-05-07T15:05:48;5.30;;;2.22;;
20731;SDS011;10527;52.124;5.196;2023-05-07T15:08:17;4.00;;;2.13;;
20731;SDS011;10527;52.124;5.196;2023-05-07T15:10:44;5.88;;;2.97;;
20731;SDS011;10527;52.124;5.196;2023-05-07T15:13:11;3.58;;;2.15;;
20731;SDS011;10527;52.124;5.196;2023-05-07T15:15:41;2.88;;;1.60;;
20731;SDS011;10527;52.124;5.196;2023-05-07T15:18:12;4.13;;;1.58;;
20731;SDS011;10527;52.124;5.196;2023-05-07T15:20:40;4.00;;;2.08;;